createdAt,value
2022-11-20T00:00:54.509Z,67.13
2022-11-20T00:01:56.155Z,67.07
2022-11-20T00:02:57.745Z,66.92
2022-11-20T00:04:01.841Z,66.97
2022-11-20T00:05:03.297Z,66.80
2022-11-20T00:06:05.564Z,66.98
2022-11-20T00:07:08.442Z,67.11
2022-11-20T00:08:11.499Z,67.21
2022-11-20T00:09:13.017Z,66.96
2022-11-20T00:10:14.454Z,66.70
2022-11-20T00:11:17.303Z,66.68
2022-11-20T00:12:18.843Z,67.10
2022-11-20T00:13:23.514Z,67.23
2022-11-20T00:14:25.130Z,67.15
2022-11-20T00:15:30.523Z,67.17
2022-11-20T00:16:34.986Z,67.04
2022-11-20T00:17:36.576Z,67.21
2022-11-20T00:18:38.202Z,67.19
2022-11-20T00:19:39.766Z,67.05
2022-11-20T00:20:41.304Z,67.04
2022-11-20T00:21:42.783Z,67.13
2022-11-20T00:22:46.985Z,66.70
2022-11-20T00:23:50.620Z,67.25
2022-11-20T00:24:52.105Z,67.43
2022-11-20T00:26:02.340Z,67.27
2022-11-20T00:27:04.435Z,66.60
2022-11-20T00:28:10.042Z,67.11
2022-11-20T00:29:11.830Z,67.05
2022-11-20T00:30:21.031Z,66.51
2022-11-20T00:31:22.594Z,66.93
2022-11-20T00:32:24.092Z,67.15
2022-11-20T00:33:28.840Z,67.01
2022-11-20T00:34:30.319Z,66.81
2022-11-20T00:35:49.862Z,67.16
2022-11-20T00:36:51.367Z,67.27
2022-11-20T00:37:52.867Z,66.70
2022-11-20T00:39:02.382Z,67.13
2022-11-20T00:40:03.987Z,67.07
2022-11-20T00:41:08.799Z,66.75
2022-11-20T00:43:26.730Z,67.11
2022-11-20T00:44:37.054Z,67.35
2022-11-20T00:45:38.522Z,66.85
2022-11-20T00:46:42.629Z,67.04
2022-11-20T00:48:11.502Z,67.27
2022-11-20T00:49:21.795Z,67.58
2022-11-20T00:50:23.405Z,67.41
2022-11-20T00:51:30.062Z,67.38
2022-11-20T00:53:03.047Z,67.05
2022-11-20T00:54:04.510Z,67.10
2022-11-20T00:55:06.225Z,66.93
2022-11-20T00:56:08.482Z,67.05
2022-11-20T00:57:09.922Z,66.77
2022-11-20T00:58:14.318Z,66.91
2022-11-20T00:59:16.042Z,66.51
2022-11-20T01:01:33.122Z,66.88
2022-11-20T01:02:37.759Z,66.48
2022-11-20T01:03:40.484Z,66.96
2022-11-20T01:04:44.322Z,66.72
2022-11-20T01:05:48.880Z,67.13
2022-11-20T01:06:50.469Z,66.95
2022-11-20T01:07:57.847Z,67.04
2022-11-20T01:09:02.311Z,67.06
2022-11-20T01:10:04.601Z,66.75
2022-11-20T01:11:16.196Z,66.83
2022-11-20T01:12:25.049Z,66.95
2022-11-20T01:13:38.933Z,67.08
2022-11-20T01:14:40.518Z,67.16
2022-11-20T01:15:42.039Z,66.88
2022-11-20T01:16:49.703Z,67.04
2022-11-20T01:17:51.158Z,67.16
2022-11-20T01:18:53.242Z,67.28
2022-11-20T01:19:56.989Z,66.90
2022-11-20T01:21:05.089Z,66.62
2022-11-20T01:22:06.582Z,66.92
2022-11-20T01:23:08.062Z,67.06
2022-11-20T01:24:14.007Z,67.06
2022-11-20T01:25:16.960Z,67.29
2022-11-20T01:26:27.375Z,66.85
2022-11-20T01:27:31.800Z,66.91
2022-11-20T01:28:35.844Z,67.06
2022-11-20T01:29:37.294Z,67.13
2022-11-20T01:30:39.920Z,67.13
2022-11-20T01:31:41.453Z,66.46
2022-11-20T01:32:43.475Z,66.59
2022-11-20T01:33:45.325Z,66.91
2022-11-20T01:34:48.841Z,66.87
2022-11-20T01:35:50.495Z,66.99
2022-11-20T01:36:54.006Z,66.48
2022-11-20T01:38:01.097Z,66.46
2022-11-20T01:40:19.376Z,66.24
2022-11-20T01:41:39.519Z,67.02
2022-11-20T01:43:25.286Z,67.20
2022-11-20T01:44:45.573Z,67.44
2022-11-20T01:45:49.871Z,67.59
2022-11-20T01:47:00.607Z,67.59
2022-11-20T01:48:04.165Z,67.60
2022-11-20T01:49:09.006Z,67.43
2022-11-20T01:50:12.686Z,67.36
2022-11-20T01:51:17.482Z,67.34
2022-11-20T01:52:23.683Z,67.22
2022-11-20T01:53:26.512Z,67.16
2022-11-20T01:55:51.345Z,67.11
2022-11-20T01:57:01.499Z,67.29
2022-11-20T01:58:02.974Z,67.14
2022-11-20T01:59:04.954Z,66.81
2022-11-20T02:00:07.470Z,66.95
2022-11-20T02:01:16.963Z,67.28
2022-11-20T02:02:18.449Z,67.01
2022-11-20T02:03:27.589Z,66.37
2022-11-20T02:04:29.100Z,66.94
2022-11-20T02:05:46.570Z,66.77
2022-11-20T02:06:49.423Z,67.42
2022-11-20T02:07:50.922Z,67.47
2022-11-20T02:08:53.342Z,67.56
2022-11-20T02:09:58.529Z,67.53
2022-11-20T02:11:00.415Z,67.58
2022-11-20T02:12:02.036Z,67.57
2022-11-20T02:14:38.467Z,67.58
2022-11-20T02:15:42.683Z,67.36
2022-11-20T02:16:47.585Z,67.08
2022-11-20T02:17:49.269Z,67.38
2022-11-20T02:18:50.934Z,67.71
2022-11-20T02:19:52.430Z,67.30
2022-11-20T02:21:08.283Z,67.65
2022-11-20T02:22:20.516Z,67.24
2022-11-20T02:24:37.411Z,67.37
2022-11-20T02:25:40.531Z,67.57
2022-11-20T02:26:45.443Z,67.19
2022-11-20T02:27:47.695Z,66.95
2022-11-20T02:28:49.177Z,67.06
2022-11-20T02:30:04.020Z,66.67
2022-11-20T02:31:05.494Z,66.62
2022-11-20T02:32:39.869Z,67.07
2022-11-20T02:33:41.366Z,66.66
2022-11-20T02:34:42.837Z,67.35
2022-11-20T02:35:44.875Z,67.19
2022-11-20T02:36:46.314Z,67.08
2022-11-20T02:37:48.734Z,66.56
2022-11-20T02:38:50.809Z,66.95
2022-11-20T02:39:52.359Z,66.90
2022-11-20T02:41:00.946Z,66.48
2022-11-20T02:42:03.043Z,66.22
2022-11-20T02:43:04.487Z,66.43
2022-11-20T02:44:08.805Z,66.68
2022-11-20T02:45:10.782Z,66.31
2022-11-20T02:46:14.726Z,66.34
2022-11-20T02:47:16.518Z,66.02
2022-11-20T02:48:17.984Z,65.94
2022-11-20T02:49:19.968Z,66.62
2022-11-20T02:50:21.762Z,66.50
2022-11-20T02:51:25.937Z,66.38
2022-11-20T02:52:27.422Z,66.13
2022-11-20T02:53:28.858Z,66.23
2022-11-20T02:54:33.081Z,66.29
2022-11-20T02:55:40.491Z,66.24
2022-11-20T02:56:42.478Z,65.90
2022-11-20T02:57:44.039Z,66.63
2022-11-20T02:58:45.495Z,66.51
2022-11-20T02:59:47.018Z,66.53
2022-11-20T03:00:48.546Z,66.74
2022-11-20T03:01:50.008Z,66.58
2022-11-20T03:02:51.480Z,67.02
2022-11-20T03:03:56.928Z,66.89
2022-11-20T03:04:58.376Z,66.38
2022-11-20T03:06:09.230Z,66.32
2022-11-20T03:07:16.809Z,66.47
2022-11-20T03:08:18.491Z,66.65
2022-11-20T03:09:20.149Z,66.96
2022-11-20T03:10:24.509Z,67.11
2022-11-20T03:11:25.990Z,67.04
2022-11-20T03:12:27.490Z,66.88
2022-11-20T03:13:29.503Z,67.11
2022-11-20T03:14:36.984Z,66.88
2022-11-20T03:15:38.585Z,66.76
2022-11-20T03:16:40.153Z,67.06
2022-11-20T03:17:41.650Z,66.56
2022-11-20T03:18:43.168Z,66.87
2022-11-20T03:19:46.515Z,67.01
2022-11-20T03:20:48.082Z,66.92
2022-11-20T03:21:49.558Z,66.86
2022-11-20T03:22:51.087Z,67.12
2022-11-20T03:23:53.790Z,66.93
2022-11-20T03:25:01.040Z,66.46
2022-11-20T03:26:09.474Z,66.97
2022-11-20T03:27:10.945Z,66.53
2022-11-20T03:28:12.494Z,66.94
2022-11-20T03:29:13.963Z,66.99
2022-11-20T03:30:16.107Z,66.97
2022-11-20T03:31:17.876Z,66.86
2022-11-20T03:32:19.380Z,66.64
2022-11-20T03:33:20.899Z,67.13
2022-11-20T03:34:25.446Z,66.95
2022-11-20T03:35:27.288Z,67.30
2022-11-20T03:36:31.802Z,67.07
2022-11-20T03:37:33.558Z,67.22
2022-11-20T03:38:38.088Z,67.31
2022-11-20T03:39:39.518Z,67.03
2022-11-20T03:40:41.054Z,67.04
2022-11-20T03:41:45.809Z,67.25
2022-11-20T03:42:47.360Z,67.00
2022-11-20T03:43:58.574Z,67.39
2022-11-20T03:45:00.030Z,66.88
2022-11-20T03:46:01.623Z,67.30
2022-11-20T03:47:05.801Z,67.00
2022-11-20T03:48:07.293Z,67.28
2022-11-20T03:49:17.561Z,66.55
2022-11-20T03:50:19.529Z,67.14
2022-11-20T03:51:21.832Z,66.95
2022-11-20T03:52:23.291Z,66.70
2022-11-20T03:53:43.287Z,67.26
2022-11-20T03:54:46.810Z,66.60
2022-11-20T03:55:58.947Z,66.89
2022-11-20T03:57:00.533Z,67.13
2022-11-20T03:58:02.080Z,66.98
2022-11-20T03:59:08.933Z,66.54
2022-11-20T04:00:10.759Z,66.41
2022-11-20T04:01:17.433Z,66.78
2022-11-20T04:02:26.354Z,67.00
2022-11-20T04:03:37.210Z,66.92
2022-11-20T04:04:41.398Z,66.44
2022-11-20T04:05:42.833Z,66.65
2022-11-20T04:06:44.325Z,66.40
2022-11-20T04:07:45.815Z,66.64
2022-11-20T04:08:53.404Z,66.49
2022-11-20T04:09:55.257Z,66.32
2022-11-20T04:10:56.701Z,66.19
2022-11-20T04:11:58.138Z,66.72
2022-11-20T04:12:59.646Z,66.67
2022-11-20T04:14:02.309Z,67.14
2022-11-20T04:15:03.901Z,67.23
2022-11-20T04:16:13.902Z,67.00
2022-11-20T04:17:15.553Z,67.14
2022-11-20T04:18:17.007Z,67.46
2022-11-20T04:19:18.789Z,67.35
2022-11-20T04:20:20.674Z,67.75
2022-11-20T04:22:38.554Z,67.28
2022-11-20T04:23:43.146Z,67.35
2022-11-20T04:24:45.782Z,67.35
2022-11-20T04:25:53.447Z,67.00
2022-11-20T04:26:55.033Z,67.02
2022-11-20T04:27:56.491Z,66.62
2022-11-20T04:28:58.199Z,67.12
2022-11-20T04:30:01.587Z,66.42
2022-11-20T04:31:09.425Z,66.19
2022-11-20T04:32:10.973Z,66.66
2022-11-20T04:33:12.414Z,66.21
2022-11-20T04:34:13.936Z,66.95
2022-11-20T04:35:15.589Z,66.59
2022-11-20T04:36:20.010Z,67.14
2022-11-20T04:37:21.537Z,67.37
2022-11-20T04:38:25.379Z,67.06
2022-11-20T04:39:52.106Z,66.83
2022-11-20T04:40:56.792Z,67.50
2022-11-20T04:42:19.466Z,67.00
2022-11-20T04:43:20.923Z,67.31
2022-11-20T04:44:24.982Z,67.18
2022-11-20T04:45:26.431Z,67.32
2022-11-20T04:46:28.040Z,67.30
2022-11-20T04:47:34.881Z,67.25
2022-11-20T04:49:52.119Z,67.53
2022-11-20T04:50:53.689Z,67.21
2022-11-20T04:51:55.135Z,67.41
2022-11-20T04:52:56.609Z,67.06
2022-11-20T04:53:58.551Z,66.91
2022-11-20T04:55:02.771Z,67.12
2022-11-20T04:56:04.806Z,66.95
2022-11-20T04:57:10.018Z,67.04
2022-11-20T04:58:26.971Z,66.95
2022-11-20T04:59:28.593Z,67.16
2022-11-20T05:00:36.183Z,67.04
2022-11-20T05:01:37.661Z,67.02
2022-11-20T05:02:41.651Z,66.79
2022-11-20T05:03:43.567Z,66.95
2022-11-20T05:04:46.552Z,66.95
2022-11-20T05:05:57.119Z,66.53
2022-11-20T05:06:58.589Z,66.88
2022-11-20T05:08:02.412Z,66.43
2022-11-20T05:09:03.906Z,66.51
2022-11-20T05:10:05.598Z,66.38
2022-11-20T05:11:13.943Z,66.11
2022-11-20T05:12:24.347Z,66.54
2022-11-20T05:13:25.830Z,66.01
2022-11-20T05:14:27.345Z,65.69
2022-11-20T05:15:30.955Z,66.06
2022-11-20T05:16:32.529Z,66.35
2022-11-20T05:17:36.145Z,66.48
2022-11-20T05:18:37.664Z,66.93
2022-11-20T05:19:42.309Z,66.80
2022-11-20T05:20:43.763Z,67.20
2022-11-20T05:21:45.321Z,67.33
2022-11-20T05:22:46.834Z,67.32
2022-11-20T05:23:48.723Z,67.33
2022-11-20T05:24:52.715Z,67.61
2022-11-20T05:25:58.707Z,67.54
2022-11-20T05:27:00.785Z,67.13
2022-11-20T05:28:02.234Z,66.91
2022-11-20T05:29:03.870Z,67.26
2022-11-20T05:30:05.690Z,67.50
2022-11-20T05:31:07.216Z,67.46
2022-11-20T05:32:10.624Z,67.26
2022-11-20T05:33:13.696Z,67.41
2022-11-20T05:34:15.210Z,67.29
2022-11-20T05:35:17.569Z,67.70
2022-11-20T05:37:34.503Z,67.19
2022-11-20T05:38:35.977Z,67.48
2022-11-20T05:39:37.597Z,67.02
2022-11-20T05:40:39.587Z,67.25
2022-11-20T05:41:41.078Z,66.91
2022-11-20T05:42:44.654Z,67.31
2022-11-20T05:43:46.471Z,67.14
2022-11-20T05:44:48.563Z,67.29
2022-11-20T05:45:53.817Z,67.29
2022-11-20T05:46:55.270Z,67.33
2022-11-20T05:48:01.085Z,67.05
2022-11-20T05:49:02.580Z,67.09
2022-11-20T05:50:04.108Z,67.65
2022-11-20T05:51:06.044Z,67.61
2022-11-20T05:52:07.554Z,66.97
2022-11-20T05:53:09.023Z,67.27
2022-11-20T05:54:10.507Z,67.17
2022-11-20T05:55:12.590Z,67.39
2022-11-20T05:56:16.856Z,67.18
2022-11-20T05:57:18.574Z,67.57
2022-11-20T05:58:22.829Z,68.00
2022-11-20T05:59:24.437Z,67.83
2022-11-20T06:00:25.946Z,67.96
2022-11-20T06:01:27.493Z,67.63
2022-11-20T06:02:32.943Z,68.04
2022-11-20T06:03:34.526Z,67.81
2022-11-20T06:05:01.175Z,67.70
2022-11-20T06:06:02.705Z,67.68
2022-11-20T06:07:07.391Z,67.84
2022-11-20T06:08:08.952Z,67.94
2022-11-20T06:09:10.471Z,68.03
2022-11-20T06:10:12.079Z,68.00
2022-11-20T06:11:15.090Z,68.08
2022-11-20T06:12:16.583Z,68.09
2022-11-20T06:13:18.059Z,68.28
2022-11-20T06:14:19.512Z,68.03
2022-11-20T06:15:20.967Z,68.40
2022-11-20T06:16:22.857Z,67.98
2022-11-20T06:17:24.347Z,68.38
2022-11-20T06:18:26.807Z,67.68
2022-11-20T06:19:28.337Z,68.07
2022-11-20T06:20:29.775Z,67.81
2022-11-20T06:21:47.982Z,68.01
2022-11-20T06:22:49.586Z,68.19
2022-11-20T06:23:57.174Z,67.99
2022-11-20T06:24:58.680Z,68.37
2022-11-20T06:26:07.455Z,67.79
2022-11-20T06:27:09.646Z,67.77
2022-11-20T06:28:11.158Z,68.28
2022-11-20T06:29:12.754Z,68.38
2022-11-20T06:30:16.904Z,68.65
2022-11-20T06:31:19.288Z,68.60
2022-11-20T06:32:20.802Z,68.39
2022-11-20T06:33:31.035Z,68.83
2022-11-20T06:34:32.504Z,68.67
2022-11-20T06:35:36.964Z,68.52
2022-11-20T06:36:38.582Z,68.73
2022-11-20T06:37:42.820Z,68.59
2022-11-20T06:38:44.334Z,68.42
2022-11-20T06:39:48.859Z,68.87
2022-11-20T06:40:50.297Z,68.82
2022-11-20T06:41:57.265Z,68.67
2022-11-20T06:43:09.921Z,68.36
2022-11-20T06:44:11.657Z,68.04
2022-11-20T06:45:13.114Z,68.17
2022-11-20T06:46:14.864Z,67.76
2022-11-20T06:47:16.330Z,67.91
2022-11-20T06:48:17.763Z,68.09
2022-11-20T06:49:22.014Z,67.28
2022-11-20T06:50:23.613Z,67.62
2022-11-20T06:51:25.096Z,67.66
2022-11-20T06:52:26.580Z,67.26
2022-11-20T06:53:28.124Z,67.21
2022-11-20T06:54:35.626Z,66.90
2022-11-20T06:55:37.067Z,67.13
2022-11-20T06:56:41.546Z,67.60
2022-11-20T06:57:53.271Z,67.14
2022-11-20T06:58:59.564Z,66.79
2022-11-20T07:00:01.039Z,66.88
2022-11-20T07:01:03.332Z,67.43
2022-11-20T07:02:04.868Z,67.59
2022-11-20T07:03:09.761Z,67.44
2022-11-20T07:04:13.569Z,67.70
2022-11-20T07:05:22.536Z,67.85
2022-11-20T07:06:23.966Z,67.85
2022-11-20T07:07:25.502Z,67.98
2022-11-20T07:08:32.237Z,67.91
2022-11-20T07:09:34.986Z,68.14
2022-11-20T07:10:41.911Z,68.10
2022-11-20T07:11:45.681Z,68.23
2022-11-20T07:12:53.076Z,68.13
2022-11-20T07:13:54.805Z,67.89
2022-11-20T07:14:59.558Z,67.88
2022-11-20T07:16:05.601Z,67.80
2022-11-20T07:17:18.958Z,68.00
2022-11-20T07:18:29.546Z,68.33
2022-11-20T07:19:32.639Z,68.43
2022-11-20T07:20:36.867Z,68.29
2022-11-20T07:21:46.097Z,68.37
2022-11-20T07:23:10.748Z,67.73
2022-11-20T07:24:17.535Z,68.31
2022-11-20T07:25:19.041Z,68.29
2022-11-20T07:26:20.571Z,68.71
2022-11-20T07:27:34.242Z,68.49
2022-11-20T07:29:51.218Z,68.80
2022-11-20T07:31:01.958Z,68.85
2022-11-20T07:32:03.527Z,68.61
2022-11-20T07:33:04.972Z,68.97
2022-11-20T07:34:06.509Z,68.32
2022-11-20T07:35:08.226Z,69.10
2022-11-20T07:36:09.717Z,68.87
2022-11-20T07:37:19.130Z,69.01
2022-11-20T07:38:20.614Z,69.22
2022-11-20T07:39:24.963Z,69.17
2022-11-20T07:40:31.622Z,69.22
2022-11-20T07:41:33.798Z,69.21
2022-11-20T07:42:45.649Z,68.87
2022-11-20T07:43:53.448Z,68.67
2022-11-20T07:44:54.914Z,68.86
2022-11-20T07:45:57.246Z,68.91
2022-11-20T07:46:58.703Z,68.86
2022-11-20T07:48:07.343Z,68.66
2022-11-20T07:49:08.843Z,69.03
2022-11-20T07:50:17.814Z,68.64
2022-11-20T07:51:19.341Z,68.87
2022-11-20T07:52:20.854Z,68.99
2022-11-20T07:53:23.298Z,68.99
2022-11-20T07:54:26.975Z,68.91
2022-11-20T07:55:30.684Z,69.07
2022-11-20T07:56:32.134Z,68.82
2022-11-20T07:57:33.614Z,68.68
2022-11-20T07:58:35.586Z,68.96
2022-11-20T08:00:10.134Z,68.48
2022-11-20T08:01:26.298Z,68.77
2022-11-20T08:02:27.759Z,68.80
2022-11-20T08:03:29.240Z,68.96
2022-11-20T08:04:30.746Z,68.99
2022-11-20T08:05:34.588Z,69.18
2022-11-20T08:06:41.832Z,69.05
2022-11-20T08:07:46.362Z,69.26
2022-11-20T08:10:03.675Z,69.14
2022-11-20T08:11:24.287Z,69.12
2022-11-20T08:12:53.520Z,68.91
2022-11-20T08:14:14.494Z,68.73
2022-11-20T08:15:16.169Z,68.78
2022-11-20T08:16:20.342Z,68.57
2022-11-20T08:17:21.786Z,68.26
2022-11-20T08:18:31.134Z,68.14
2022-11-20T08:19:39.921Z,68.67
2022-11-20T08:20:41.718Z,68.37
2022-11-20T08:21:49.087Z,68.25
2022-11-20T08:22:50.650Z,68.25
2022-11-20T08:23:52.148Z,68.88
2022-11-20T08:24:53.746Z,68.41
2022-11-20T08:25:57.594Z,68.73
2022-11-20T08:27:00.181Z,68.44
2022-11-20T08:28:15.731Z,68.72
2022-11-20T08:29:22.036Z,68.65
2022-11-20T08:30:23.965Z,68.45
2022-11-20T08:31:25.960Z,68.65
2022-11-20T08:32:27.428Z,68.73
2022-11-20T08:33:30.864Z,68.68
2022-11-20T08:34:35.326Z,68.21
2022-11-20T08:35:39.014Z,68.62
2022-11-20T08:36:40.543Z,68.46
2022-11-20T08:37:42.657Z,68.34
2022-11-20T08:38:50.394Z,68.49
2022-11-20T08:39:54.509Z,68.92
2022-11-20T08:41:22.050Z,68.73
2022-11-20T08:42:23.566Z,68.32
2022-11-20T08:43:27.698Z,68.50
2022-11-20T08:44:29.185Z,68.35
2022-11-20T08:45:34.245Z,68.39
2022-11-20T08:46:38.471Z,68.61
2022-11-20T08:47:39.907Z,68.19
2022-11-20T08:48:41.341Z,68.16
2022-11-20T08:49:42.872Z,68.30
2022-11-20T08:50:52.075Z,68.44
2022-11-20T08:52:03.134Z,68.71
2022-11-20T08:53:14.628Z,68.68
2022-11-20T08:54:18.273Z,68.46
2022-11-20T08:55:19.722Z,68.24
2022-11-20T08:56:21.191Z,68.37
2022-11-20T08:57:25.646Z,68.36
2022-11-20T08:59:18.313Z,68.25
2022-11-20T09:00:20.482Z,68.36
2022-11-20T09:01:27.055Z,68.48
2022-11-20T09:02:34.998Z,68.22
2022-11-20T09:05:03.994Z,68.28
2022-11-20T09:06:06.201Z,68.18
2022-11-20T09:07:07.730Z,68.29
2022-11-20T09:08:09.395Z,68.11
2022-11-20T09:09:10.966Z,67.95
2022-11-20T09:10:28.189Z,68.38
2022-11-20T09:11:37.041Z,68.09
2022-11-20T09:12:38.578Z,67.89
2022-11-20T09:13:40.082Z,67.99
2022-11-20T09:14:41.571Z,68.00
2022-11-20T09:15:45.770Z,68.61
2022-11-20T09:16:48.682Z,68.19
2022-11-20T09:17:56.845Z,68.17
2022-11-20T09:19:20.653Z,68.34
2022-11-20T09:20:20.063Z,68.14
2022-11-20T09:21:21.652Z,68.25
2022-11-20T09:22:33.250Z,68.51
2022-11-20T09:23:37.795Z,68.28
2022-11-20T09:24:43.701Z,68.07
2022-11-20T09:26:09.518Z,68.31
2022-11-20T09:27:11.659Z,68.40
2022-11-20T09:28:15.767Z,68.45
2022-11-20T09:29:17.699Z,68.40
2022-11-20T09:30:19.218Z,67.85
2022-11-20T09:31:27.224Z,67.94
2022-11-20T09:32:31.791Z,67.71
2022-11-20T09:33:33.217Z,67.84
2022-11-20T09:34:34.799Z,67.86
2022-11-20T09:35:38.672Z,68.26
2022-11-20T09:36:40.152Z,67.96
2022-11-20T09:37:44.302Z,68.25
2022-11-20T09:38:48.621Z,67.93
2022-11-20T09:39:56.195Z,67.88
2022-11-20T09:40:57.650Z,68.22
2022-11-20T09:42:02.431Z,68.47
2022-11-20T09:43:09.759Z,67.81
2022-11-20T09:44:18.330Z,67.92
2022-11-20T09:47:11.668Z,67.94
2022-11-20T09:48:34.943Z,68.06
2022-11-20T09:49:36.387Z,68.04
2022-11-20T09:50:41.159Z,68.33
2022-11-20T09:51:57.369Z,68.09
2022-11-20T09:53:20.001Z,67.94
2022-11-20T09:54:22.139Z,67.44
2022-11-20T09:55:23.592Z,67.57
2022-11-20T09:56:25.091Z,67.64
2022-11-20T09:57:27.539Z,67.55
2022-11-20T09:59:01.459Z,67.12
2022-11-20T10:00:06.375Z,67.23
2022-11-20T10:01:18.703Z,67.46
2022-11-20T10:02:30.215Z,67.66
2022-11-20T10:03:37.201Z,67.49
2022-11-20T10:04:40.921Z,67.62
2022-11-20T10:05:46.236Z,67.68
2022-11-20T10:08:40.362Z,67.80
2022-11-20T10:09:45.513Z,67.71
2022-11-20T10:11:00.080Z,67.61
2022-11-20T10:12:07.965Z,67.34
2022-11-20T10:13:25.939Z,67.32
2022-11-20T10:14:27.611Z,67.27
2022-11-20T10:15:39.806Z,67.38
2022-11-20T10:17:03.170Z,66.93
2022-11-20T10:18:23.678Z,66.43
2022-11-20T10:19:35.488Z,66.48
2022-11-20T10:20:48.379Z,67.37
2022-11-20T10:23:25.579Z,67.69
2022-11-20T10:24:49.398Z,67.95
2022-11-20T10:25:56.853Z,68.11
2022-11-20T10:27:01.804Z,67.86
2022-11-20T10:28:26.906Z,67.97
2022-11-20T10:29:37.711Z,67.70
2022-11-20T10:30:41.495Z,67.52
2022-11-20T10:32:15.004Z,67.90
2022-11-20T10:33:38.767Z,67.68
2022-11-20T10:35:09.487Z,67.88
2022-11-20T10:36:20.497Z,67.99
2022-11-20T10:37:28.284Z,68.02
2022-11-20T10:38:55.397Z,67.86
2022-11-20T10:39:59.460Z,67.87
2022-11-20T10:41:20.846Z,67.72
2022-11-20T10:42:41.184Z,67.90
2022-11-20T10:45:13.206Z,68.39
2022-11-20T10:46:27.105Z,68.60
2022-11-20T10:47:29.010Z,68.56
2022-11-20T10:48:31.161Z,67.76
2022-11-20T10:49:33.687Z,68.00
2022-11-20T10:50:36.046Z,67.86
2022-11-20T10:51:56.170Z,67.64
2022-11-20T10:53:03.642Z,67.57
2022-11-20T10:54:25.120Z,67.39
2022-11-20T10:55:38.458Z,67.59
2022-11-20T10:56:49.491Z,67.82
2022-11-20T10:58:09.919Z,67.85
2022-11-20T10:59:20.696Z,68.19
2022-11-20T11:00:22.382Z,68.10
2022-11-20T11:01:24.406Z,68.23
2022-11-20T11:02:34.482Z,68.16
2022-11-20T11:03:38.770Z,68.50
2022-11-20T11:04:41.796Z,68.19
2022-11-20T11:05:56.113Z,68.47
2022-11-20T11:07:09.158Z,68.67
2022-11-20T11:08:12.151Z,68.17
2022-11-20T11:09:34.733Z,68.62
2022-11-20T11:10:47.810Z,69.03
2022-11-20T11:11:49.791Z,69.25
2022-11-20T11:12:53.640Z,69.25
2022-11-20T11:14:13.130Z,68.94
2022-11-20T11:15:28.135Z,69.56
2022-11-20T11:16:29.943Z,69.71
2022-11-20T11:17:32.590Z,69.89
2022-11-20T11:18:35.127Z,69.88
2022-11-20T11:19:45.502Z,69.44
2022-11-20T11:20:50.771Z,69.72
2022-11-20T11:21:56.039Z,69.87
2022-11-20T11:22:58.553Z,70.03
2022-11-20T11:24:26.820Z,70.41
2022-11-20T11:25:51.910Z,70.36
2022-11-20T11:27:13.698Z,70.34
2022-11-20T11:28:21.967Z,69.66
2022-11-20T11:29:23.651Z,69.92
2022-11-20T11:30:28.691Z,70.01
2022-11-20T11:31:31.489Z,70.23
2022-11-20T11:32:32.966Z,70.58
2022-11-20T11:33:37.061Z,71.14
2022-11-20T11:34:44.291Z,69.89
2022-11-20T11:35:49.911Z,68.90
2022-11-20T11:36:59.134Z,68.84
2022-11-20T11:38:12.140Z,68.78
2022-11-20T11:39:15.392Z,69.04
2022-11-20T11:40:23.822Z,69.10
2022-11-20T11:41:26.573Z,69.39
2022-11-20T11:42:31.246Z,69.23
2022-11-20T11:43:55.587Z,69.18
2022-11-20T11:45:18.466Z,69.35
2022-11-20T11:47:44.204Z,68.92
2022-11-20T11:48:55.278Z,68.29
2022-11-20T11:50:23.081Z,68.48
2022-11-20T11:51:26.266Z,68.64
2022-11-20T11:52:27.756Z,68.71
2022-11-20T11:53:29.253Z,68.77
2022-11-20T11:54:50.354Z,67.90
2022-11-20T11:55:54.982Z,67.87
2022-11-20T11:56:59.214Z,68.16
2022-11-20T11:58:12.999Z,67.81
2022-11-20T11:59:20.268Z,67.75
2022-11-20T12:00:22.372Z,68.04
2022-11-20T12:01:39.861Z,68.28
2022-11-20T12:02:58.319Z,68.28
2022-11-20T12:04:21.578Z,68.40
2022-11-20T12:05:31.949Z,68.63
2022-11-20T12:06:36.195Z,69.15
2022-11-20T12:07:47.072Z,69.76
2022-11-20T12:08:51.841Z,69.50
2022-11-20T12:09:53.938Z,69.28
2022-11-20T12:10:55.799Z,69.36
2022-11-20T12:12:00.046Z,69.15
2022-11-20T12:13:30.475Z,68.92
2022-11-20T12:14:38.415Z,69.07
2022-11-20T12:15:39.911Z,68.98
2022-11-20T12:16:41.370Z,69.21
2022-11-20T12:17:42.858Z,69.36
2022-11-20T12:18:45.763Z,69.38
2022-11-20T12:20:12.370Z,69.33
2022-11-20T12:21:18.816Z,69.77
2022-11-20T12:22:27.391Z,69.84
2022-11-20T12:28:18.675Z,69.55
2022-11-20T12:29:40.396Z,69.69
2022-11-20T12:31:08.330Z,69.89
2022-11-20T12:32:19.904Z,70.02
2022-11-20T12:33:30.540Z,70.15
2022-11-20T12:34:41.151Z,69.94
2022-11-20T12:35:49.007Z,70.22
2022-11-20T12:36:53.482Z,70.09
2022-11-20T12:38:13.273Z,70.12
2022-11-20T12:39:17.575Z,70.14
2022-11-20T12:40:24.848Z,69.98
2022-11-20T12:42:01.600Z,69.69
2022-11-20T12:43:45.708Z,69.72
2022-11-20T12:45:17.403Z,70.26
2022-11-20T12:46:37.085Z,70.10
2022-11-20T12:47:44.315Z,70.28
2022-11-20T12:48:48.682Z,70.42
2022-11-20T12:49:58.069Z,70.44
2022-11-20T12:51:15.154Z,70.54
2022-11-20T12:52:24.914Z,70.32
2022-11-20T12:53:35.318Z,70.41
2022-11-20T12:55:15.805Z,70.62
2022-11-20T12:56:41.816Z,70.60
2022-11-20T12:57:50.123Z,70.74
2022-11-20T12:59:25.252Z,70.84
2022-11-20T13:00:27.079Z,70.97
2022-11-20T13:01:46.105Z,71.02
2022-11-20T13:02:56.786Z,71.07
2022-11-20T13:04:03.273Z,71.29
2022-11-20T13:05:25.714Z,71.30
2022-11-20T13:06:30.749Z,71.39
2022-11-20T13:07:34.958Z,70.93
2022-11-20T13:08:48.645Z,70.65
2022-11-20T13:09:50.659Z,70.60
2022-11-20T13:10:58.187Z,70.68
2022-11-20T13:12:21.639Z,70.55
2022-11-20T13:13:43.348Z,70.79
2022-11-20T13:14:47.551Z,70.51
2022-11-20T13:15:49.062Z,70.69
2022-11-20T13:17:11.282Z,70.95
2022-11-20T13:18:12.890Z,71.04
2022-11-20T13:19:17.603Z,71.01
2022-11-20T13:20:19.827Z,71.35
2022-11-20T13:21:22.375Z,71.36
2022-11-20T13:22:42.740Z,71.11
2022-11-20T13:23:44.823Z,70.99
2022-11-20T13:24:50.930Z,71.25
2022-11-20T13:25:53.723Z,70.88
2022-11-20T13:27:05.057Z,70.76
2022-11-20T13:28:12.570Z,70.79
2022-11-20T13:29:21.007Z,71.04
2022-11-20T13:30:25.939Z,70.56
2022-11-20T13:31:36.781Z,70.77
2022-11-20T13:32:43.670Z,70.83
2022-11-20T13:33:45.150Z,71.06
2022-11-20T13:34:56.373Z,71.18
2022-11-20T13:35:57.791Z,71.02
2022-11-20T13:37:01.380Z,70.74
2022-11-20T13:38:05.657Z,70.89
2022-11-20T13:39:14.621Z,70.63
2022-11-20T13:40:21.229Z,70.79
2022-11-20T13:41:28.789Z,70.45
2022-11-20T13:42:30.355Z,70.09
2022-11-20T13:43:36.249Z,70.21
2022-11-20T13:44:38.955Z,70.47
2022-11-20T13:46:02.379Z,69.54
2022-11-20T13:47:03.919Z,69.04
2022-11-20T13:48:06.105Z,68.82
2022-11-20T13:49:08.780Z,68.44
2022-11-20T13:50:10.366Z,68.31
2022-11-20T13:51:30.709Z,68.68
2022-11-20T13:52:36.789Z,68.53
2022-11-20T13:55:05.699Z,68.16
2022-11-20T13:56:24.714Z,68.46
2022-11-20T13:58:01.855Z,68.36
2022-11-20T13:59:05.999Z,68.24
2022-11-20T14:00:12.572Z,67.80
2022-11-20T14:01:32.386Z,68.04
2022-11-20T14:02:33.958Z,67.50
2022-11-20T14:05:02.938Z,66.75
2022-11-20T14:06:16.940Z,66.85
2022-11-20T14:07:18.875Z,66.12
2022-11-20T14:08:40.658Z,66.39
2022-11-20T14:09:49.945Z,65.90
2022-11-20T14:10:51.463Z,66.32
2022-11-20T14:11:52.914Z,66.04
2022-11-20T14:12:57.166Z,65.42
2022-11-20T14:13:58.681Z,65.88
2022-11-20T14:15:10.556Z,65.57
2022-11-20T14:16:15.142Z,66.32
2022-11-20T14:17:19.390Z,65.99
2022-11-20T14:18:26.113Z,66.16
2022-11-20T14:19:29.079Z,66.03
2022-11-20T14:20:32.131Z,66.14
2022-11-20T14:21:33.589Z,66.76
2022-11-20T14:22:38.120Z,66.58
2022-11-20T14:23:39.921Z,66.59
2022-11-20T14:24:41.398Z,66.80
2022-11-20T14:25:43.169Z,66.77
2022-11-20T14:26:45.097Z,66.97
2022-11-20T14:27:51.399Z,67.01
2022-11-20T14:28:52.914Z,66.71
2022-11-20T14:29:54.386Z,66.52
2022-11-20T14:30:56.322Z,66.48
2022-11-20T14:32:00.504Z,65.48
2022-11-20T14:33:02.614Z,65.45
2022-11-20T14:34:04.136Z,66.10
2022-11-20T14:35:17.040Z,65.87
2022-11-20T14:36:18.834Z,65.95
2022-11-20T14:37:27.141Z,65.85
2022-11-20T14:38:28.909Z,65.67
2022-11-20T14:39:34.139Z,65.17
2022-11-20T14:40:36.776Z,65.40
2022-11-20T14:41:39.850Z,65.68
2022-11-20T14:42:44.449Z,65.32
2022-11-20T14:43:47.770Z,65.22
2022-11-20T14:44:52.213Z,65.46